• Join FlightAware (Why Join?)
  • Login
  • US Flag 
03:55AM EDT


 

Airport Tracker/Info


-or-


 

Live Flight TrackerFlight Track Log ✈ LXJ621 ✈ 08/May/2013 ✈ KCHS - KTEB

Flight Track Log - Related Links

Times and Time Zones

All times are in EDT time to prevent confusion due to time zone crossing. See the LXJ621 flight status page for this flight to view local times or setup timezone preferences in your user account.

Time Position Orientation Groundspeed Altitude Reporting Facility
EDT Latitude Longitude Course Direction KTS MPH feet Rate Location/Type
07:28AM 32.8617 -79.9892 42° Northeast 237 273 3,900  Level Jacksonville Center
07:29AM 32.8956 -79.9164 61° Northeast 256 295 7,600 3,600 Climbing Jacksonville Center
07:30AM 32.9436 -79.8306 56° Northeast 277 319 11,200 4,260 Climbing Jacksonville Center
07:31AM 33.0100 -79.7269 53° Northeast 326 375 16,200 4,200 Climbing Jacksonville Center
07:32AM 33.0658 -79.6233 57° Northeast 355 409 19,700 3,000 Climbing Jacksonville Center
07:33AM 33.2380 -79.3259 42° Northeast  Level FlightAware Approximate
07:33AM 33.1275 -79.5094 57° Northeast 383 441 22,200  Level Jacksonville Center
07:34AM 33.1931 -79.3878 57° Northeast 406 467 23,700 2,040 Climbing Jacksonville Center
07:35AM 33.2839 -79.2847 43° Northeast 430 495 26,300 2,700 Climbing Jacksonville Center
07:36AM 33.3772 -79.1867 41° Northeast 439 505 29,100 2,400 Climbing Jacksonville Center
07:37AM 33.4603 -79.1033 40° Northeast 439 505 31,100 1,800 Climbing Jacksonville Center
07:38AM 33.5550 -78.9972 43° Northeast 439 505 32,700 1,260 Climbing Jacksonville Center
07:39AM 33.6581 -78.8903 41° Northeast 463 533 33,700 1,200 Climbing Jacksonville Center
07:41AM 33.8592 -78.6578 44° Northeast 550 633 36,400 1,320 Climbing Washington Center
07:42AM 33.9419 -78.5231 53° Northeast 514 592 37,800 1,200 Climbing Washington Center
07:43AM 34.0264 -78.3933 52° Northeast 495 570 38,800 960 Climbing Washington Center
07:44AM 34.1086 -78.2631 53° Northeast 490 564 39,800 900 Climbing Washington Center
07:45AM 34.1928 -78.1353 51° Northeast 490 564 40,700 900 Climbing Washington Center
07:46AM 34.2892 -78.0203 45° Northeast 490 564 41,700 780 Climbing Washington Center
07:47AM 34.4131 -77.9811 15° North 462 532 42,400 540 Climbing Washington Center
07:48AM 34.5381 -77.9797 North 433 498 42,900 540 Climbing Washington Center
07:49AM 34.6633 -77.9783 North 445 512 43,500 540 Climbing Washington Center
07:50AM 34.7908 -77.9692 North 450 518 44,000 540 Climbing Washington Center
07:51AM 34.9244 -77.9631 North 444 511 44,600 480 Climbing Washington Center
07:52AM 35.0375 -77.9536 North 450 518 45,000 180 Climbing Washington Center
07:53AM 35.1628 -77.9472 North 450 518 45,000  Level Washington Center
07:54AM 35.2900 -77.9433 North 450 518 45,000  Level Washington Center
07:55AM 35.4194 -77.9344 North 455 524 45,000  Level Washington Center
07:56AM 35.5511 -77.9281 North 460 529 45,000  Level Washington Center
07:57AM 35.6828 -77.9217 North 460 529 45,000  Level Washington Center
07:58AM 35.8122 -77.9153 North 460 529 45,000  Level Washington Center
07:59AM 35.9417 -77.9086 North 460 529 45,000  Level Washington Center
08:00AM 36.0733 -77.9047 North 460 529 45,000  Level Washington Center
08:01AM 36.2069 -77.8958 North 465 535 45,000  Level Washington Center
08:02AM 36.3386 -77.8894 North 465 535 45,000  Level Washington Center
08:03AM 36.4658 -77.8828 North 459 528 45,000  Level Washington Center
08:04AM 36.5939 -77.8503 12° North 459 528 45,000  Level Washington Center
08:05AM 36.7158 -77.7917 21° North 467 537 45,000  Level Washington Center
08:06AM 36.8361 -77.7278 23° Northeast 467 537 45,000  Level Washington Center
08:07AM 36.9603 -77.6636 22° Northeast 467 537 45,000  Level Washington Center
08:08AM 37.0822 -77.6044 21° North 467 537 45,000  Level Washington Center
08:09AM 37.2022 -77.5397 23° Northeast 467 537 45,000  Level Washington Center
08:10AM 37.3261 -77.4775 22° Northeast 467 537 45,000  Level Washington Center
08:11AM 37.4481 -77.4150 22° Northeast 467 537 45,000  Level Washington Center
08:12AM 37.5700 -77.3525 22° Northeast 467 537 45,000  Level Washington Center
08:13AM 37.6919 -77.2844 24° Northeast 467 537 45,000 -300 Level Washington Center
08:14AM 37.8161 -77.2189 23° Northeast 472 543 44,500 -840 Descending Washington Center
08:15AM 37.9378 -77.1558 22° Northeast 472 543 43,400 -1,620 Descending Washington Center
08:16AM 38.0597 -77.0897 23° Northeast 472 543 41,400 -2,100 Descending Washington Center
08:17AM 38.1792 -77.0286 22° Northeast 472 543 39,200 -2,100 Descending Washington Center
08:18AM 38.2967 -76.9647 23° Northeast 461 531 37,200 -2,040 Descending Washington Center
08:19AM 38.4183 -76.9033 22° Northeast 456 525 35,300 -1,560 Descending Washington Center
08:20AM 38.5381 -76.8364 24° Northeast 456 525 34,200 -1,080 Descending Washington Center
08:21AM 38.6575 -76.7747 22° Northeast 456 525 33,200 -960 Descending Washington Center
08:22AM 38.7603 -76.6858 34° Northeast 443 510 32,300 -1,320 Descending Washington Center
08:23AM 38.8447 -76.5831 43° Northeast 424 488 30,700 -1,860 Descending Washington Center
08:24AM 38.9308 -76.4856 41° Northeast 417 480 28,700 -2,040 Descending Washington Center
08:25AM 39.0108 -76.3903 43° Northeast 398 458 26,700 -2,160 Descending Washington Center
08:26AM 39.0906 -76.2978 42° Northeast 391 450 24,400 -1,380 Descending Washington Center
08:27AM 39.1681 -76.2072 42° Northeast 381 438 24,000 -240 Descending Washington Center
08:28AM 39.2497 -76.1169 41° Northeast 381 438 24,000 -660 Level Washington Center
08:30AM 39.4167 -75.9500 38° Northeast 369 425 22,100 -1,620 Descending Philadelphia TRACON
08:31AM 39.5000 -75.8667 38° Northeast 363 418 19,200 -2,580 Descending Philadelphia TRACON
08:32AM 39.5833 -75.8000 32° Northeast 362 417 16,800 -2,220 Descending Philadelphia TRACON
08:33AM 39.6667 -75.7167 38° Northeast 345 397 14,600 -1,800 Descending Philadelphia TRACON
08:34AM 39.7500 -75.6500 32° Northeast 334 384 13,100 -840 Descending Philadelphia TRACON
08:35AM 39.8167 -75.5833 38° Northeast 332 382 13,000 -60 Descending Philadelphia TRACON
08:36AM 39.9000 -75.5000 37° Northeast 331 381 13,000  Level Philadelphia TRACON
08:37AM 39.9833 -75.4333 32° Northeast 339 390 13,000  Level Philadelphia TRACON
08:38AM 40.0500 -75.3500 44° Northeast 336 387 13,000 60 Level Philadelphia TRACON
08:39AM 40.1167 -75.3000 30° Northeast 311 358 13,200 -360 Climbing Philadelphia TRACON
08:40AM 40.2000 -75.2333 31° Northeast 322 371 12,300 -1,440 Descending Philadelphia TRACON
08:42AM 40.3500 -75.0833 37° Northeast 297 342 8,600 -1,680 Descending New York TRACON
08:43AM 40.4000 -75.0167 45° Northeast 278 320 7,100 -1,200 Descending New York TRACON
08:44AM 40.4333 -74.9333 62° Northeast 263 303 6,300 -1,200 Descending New York TRACON
08:45AM 40.4667 -74.8500 62° Northeast 265 305 4,800 -1,560 Descending New York TRACON
08:46AM 40.5000 -74.7667 62° Northeast 251 289 3,400 -900 Descending New York TRACON
08:47AM 40.5333 -74.6833 62° Northeast 245 282 3,100 -180 Descending New York TRACON
08:48AM 40.5667 -74.6167 57° Northeast 228 262 3,100  Level New York TRACON
08:49AM 40.6000 -74.5500 57° Northeast 210 242 3,100  Level New York TRACON
08:50AM 40.6167 -74.4833 72° East 214 246 3,100 -180 Level New York TRACON
08:51AM 40.6500 -74.4167 57° Northeast 221 254 2,800 -540 Descending New York TRACON
08:52AM 40.6833 -74.3500 57° Northeast 198 228 2,100 -420 Descending New York TRACON
08:53AM 40.7000 -74.2833 72° East 165 190 2,100 -240 Level New York TRACON
08:54AM 40.7333 -74.2333 49° Northeast 173 199 1,700 -240 Descending New York TRACON
08:55AM 40.7667 -74.1833 49° Northeast 177 204 1,600 -60 Descending New York TRACON
08:56AM 40.8000 -74.1500 37° Northeast 168 193 1,600 -360 Level New York TRACON
08:57AM 40.8167 -74.1000 66° East 124 143 900 -720 Descending New York TRACON
08:59AM 40.8500 -74.0500 57° Northeast  Level FlightAware Approximate
09:06AM 40.8501 -74.0608 57° Northeast  Level Estimated